sensor_id;sensor_type;location;lat;lon;timestamp;P1;durP1;ratioP1;P2;durP2;ratioP2
7211;SDS011;3647;48.792;9.802;2023-01-10T05:15:57;6.70;;;3.00;;
7211;SDS011;3647;48.792;9.802;2023-01-10T05:18:25;4.23;;;3.13;;
7211;SDS011;3647;48.792;9.802;2023-01-10T05:20:52;4.87;;;3.50;;
7211;SDS011;3647;48.792;9.802;2023-01-10T05:23:24;7.57;;;5.13;;
7211;SDS011;3647;48.792;9.802;2023-01-10T05:25:51;4.10;;;3.20;;
7211;SDS011;3647;48.792;9.802;2023-01-10T05:28:18;4.83;;;3.57;;
7211;SDS011;3647;48.792;9.802;2023-01-10T05:30:45;5.37;;;3.83;;
7211;SDS011;3647;48.792;9.802;2023-01-10T05:33:13;3.43;;;3.13;;
7211;SDS011;3647;48.792;9.802;2023-01-10T05:35:40;4.20;;;3.40;;
7211;SDS011;3647;48.792;9.802;2023-01-10T05:38:06;6.77;;;3.60;;
7211;SDS011;3647;48.792;9.802;2023-01-10T05:40:33;5.53;;;4.00;;
7211;SDS011;3647;48.792;9.802;2023-01-10T05:43:00;4.07;;;3.70;;
7211;SDS011;3647;48.792;9.802;2023-01-10T05:45:26;5.47;;;4.07;;
7211;SDS011;3647;48.792;9.802;2023-01-10T05:47:53;9.07;;;4.27;;
7211;SDS011;3647;48.792;9.802;2023-01-10T05:50:21;5.97;;;4.10;;
7211;SDS011;3647;48.792;9.802;2023-01-10T05:52:48;5.07;;;4.17;;
7211;SDS011;3647;48.792;9.802;2023-01-10T05:55:15;9.00;;;4.37;;
7211;SDS011;3647;48.792;9.802;2023-01-10T05:57:41;5.57;;;4.00;;
7211;SDS011;3647;48.792;9.802;2023-01-10T06:00:09;5.80;;;4.20;;
7211;SDS011;3647;48.792;9.802;2023-01-10T06:02:36;5.37;;;4.17;;
7211;SDS011;3647;48.792;9.802;2023-01-10T06:05:03;8.77;;;4.53;;
7211;SDS011;3647;48.792;9.802;2023-01-10T06:07:32;10.43;;;4.47;;
7211;SDS011;3647;48.792;9.802;2023-01-10T06:09:59;10.43;;;4.20;;
7211;SDS011;3647;48.792;9.802;2023-01-10T06:12:25;5.00;;;3.83;;
7211;SDS011;3647;48.792;9.802;2023-01-10T06:14:52;7.03;;;4.43;;
7211;SDS011;3647;48.792;9.802;2023-01-10T06:17:19;7.67;;;4.40;;
7211;SDS011;3647;48.792;9.802;2023-01-10T06:19:46;9.60;;;4.93;;
7211;SDS011;3647;48.792;9.802;2023-01-10T06:22:13;7.67;;;5.80;;
7211;SDS011;3647;48.792;9.802;2023-01-10T06:24:41;11.57;;;4.27;;
7211;SDS011;3647;48.792;9.802;2023-01-10T06:27:07;9.13;;;4.20;;
7211;SDS011;3647;48.792;9.802;2023-01-10T06:29:34;5.67;;;3.60;;
7211;SDS011;3647;48.792;9.802;2023-01-10T06:32:01;13.63;;;4.30;;
7211;SDS011;3647;48.792;9.802;2023-01-10T06:34:28;6.60;;;4.00;;
7211;SDS011;3647;48.792;9.802;2023-01-10T06:36:54;12.53;;;5.27;;
7211;SDS011;3647;48.792;9.802;2023-01-10T06:39:22;4.63;;;4.10;;
7211;SDS011;3647;48.792;9.802;2023-01-10T06:41:50;7.27;;;4.20;;
7211;SDS011;3647;48.792;9.802;2023-01-10T06:44:17;8.07;;;3.63;;
7211;SDS011;3647;48.792;9.802;2023-01-10T06:46:44;6.27;;;4.70;;
7211;SDS011;3647;48.792;9.802;2023-01-10T06:49:10;9.87;;;4.90;;
7211;SDS011;3647;48.792;9.802;2023-01-10T06:51:37;10.07;;;4.17;;
7211;SDS011;3647;48.792;9.802;2023-01-10T06:54:05;10.83;;;4.20;;
7211;SDS011;3647;48.792;9.802;2023-01-10T06:56:32;8.03;;;4.20;;
7211;SDS011;3647;48.792;9.802;2023-01-10T06:59:00;7.57;;;4.53;;
7211;SDS011;3647;48.792;9.802;2023-01-10T07:01:26;4.57;;;4.00;;
7211;SDS011;3647;48.792;9.802;2023-01-10T07:03:53;10.33;;;4.47;;
7211;SDS011;3647;48.792;9.802;2023-01-10T07:06:20;7.47;;;3.90;;
7211;SDS011;3647;48.792;9.802;2023-01-10T07:08:47;5.50;;;3.97;;
7211;SDS011;3647;48.792;9.802;2023-01-10T07:11:14;8.30;;;3.70;;
7211;SDS011;3647;48.792;9.802;2023-01-10T07:13:41;6.73;;;3.83;;
7211;SDS011;3647;48.792;9.802;2023-01-10T07:16:10;12.67;;;4.23;;
7211;SDS011;3647;48.792;9.802;2023-01-10T07:18:39;5.47;;;3.60;;
7211;SDS011;3647;48.792;9.802;2023-01-10T07:21:07;6.53;;;4.00;;
7211;SDS011;3647;48.792;9.802;2023-01-10T07:23:34;10.37;;;4.00;;
7211;SDS011;3647;48.792;9.802;2023-01-10T07:26:02;11.87;;;3.87;;
7211;SDS011;3647;48.792;9.802;2023-01-10T07:28:30;13.23;;;3.30;;
7211;SDS011;3647;48.792;9.802;2023-01-10T07:30:58;8.20;;;3.37;;
7211;SDS011;3647;48.792;9.802;2023-01-10T07:33:27;9.67;;;3.13;;
7211;SDS011;3647;48.792;9.802;2023-01-10T07:35:54;10.73;;;3.57;;
7211;SDS011;3647;48.792;9.802;2023-01-10T07:38:21;7.13;;;3.10;;
7211;SDS011;3647;48.792;9.802;2023-01-10T07:40:48;9.73;;;3.50;;
7211;SDS011;3647;48.792;9.802;2023-01-10T07:43:14;7.03;;;3.70;;
7211;SDS011;3647;48.792;9.802;2023-01-10T07:45:41;11.53;;;3.90;;
7211;SDS011;3647;48.792;9.802;2023-01-10T07:48:08;7.43;;;3.80;;
7211;SDS011;3647;48.792;9.802;2023-01-10T07:50:36;7.80;;;3.63;;
7211;SDS011;3647;48.792;9.802;2023-01-10T07:53:04;8.37;;;3.80;;
7211;SDS011;3647;48.792;9.802;2023-01-10T07:55:32;6.00;;;3.83;;
7211;SDS011;3647;48.792;9.802;2023-01-10T07:58:03;8.83;;;3.77;;
7211;SDS011;3647;48.792;9.802;2023-01-10T08:00:31;12.93;;;3.90;;
7211;SDS011;3647;48.792;9.802;2023-01-10T08:02:58;7.33;;;4.70;;
7211;SDS011;3647;48.792;9.802;2023-01-10T08:05:25;5.80;;;3.87;;
7211;SDS011;3647;48.792;9.802;2023-01-10T08:07:53;5.97;;;3.60;;
7211;SDS011;3647;48.792;9.802;2023-01-10T08:10:24;6.93;;;3.20;;
7211;SDS011;3647;48.792;9.802;2023-01-10T08:12:51;7.60;;;3.63;;
7211;SDS011;3647;48.792;9.802;2023-01-10T08:15:17;7.20;;;3.37;;
7211;SDS011;3647;48.792;9.802;2023-01-10T08:17:44;5.20;;;3.30;;
7211;SDS011;3647;48.792;9.802;2023-01-10T08:20:11;5.40;;;3.67;;
7211;SDS011;3647;48.792;9.802;2023-01-10T08:22:38;8.10;;;3.67;;
7211;SDS011;3647;48.792;9.802;2023-01-10T08:25:06;4.80;;;3.40;;
7211;SDS011;3647;48.792;9.802;2023-01-10T08:27:34;9.23;;;3.50;;
7211;SDS011;3647;48.792;9.802;2023-01-10T08:30:00;8.57;;;3.83;;
7211;SDS011;3647;48.792;9.802;2023-01-10T08:32:27;4.03;;;3.17;;
7211;SDS011;3647;48.792;9.802;2023-01-10T08:34:54;4.30;;;3.20;;
7211;SDS011;3647;48.792;9.802;2023-01-10T08:37:21;4.33;;;3.20;;
7211;SDS011;3647;48.792;9.802;2023-01-10T08:39:47;6.83;;;3.37;;
7211;SDS011;3647;48.792;9.802;2023-01-10T08:42:16;3.67;;;2.90;;
7211;SDS011;3647;48.792;9.802;2023-01-10T08:44:42;3.63;;;2.90;;
7211;SDS011;3647;48.792;9.802;2023-01-10T08:47:10;5.90;;;3.20;;
7211;SDS011;3647;48.792;9.802;2023-01-10T08:49:36;6.40;;;3.60;;
7211;SDS011;3647;48.792;9.802;2023-01-10T08:52:03;6.20;;;4.20;;
7211;SDS011;3647;48.792;9.802;2023-01-10T08:54:30;4.83;;;3.63;;
7211;SDS011;3647;48.792;9.802;2023-01-10T08:56:57;5.17;;;3.00;;
7211;SDS011;3647;48.792;9.802;2023-01-10T08:59:25;5.73;;;3.17;;
7211;SDS011;3647;48.792;9.802;2023-01-10T09:01:52;5.20;;;3.00;;
7211;SDS011;3647;48.792;9.802;2023-01-10T09:04:22;13.30;;;4.73;;
7211;SDS011;3647;48.792;9.802;2023-01-10T09:06:49;7.20;;;3.40;;
7211;SDS011;3647;48.792;9.802;2023-01-10T09:09:15;7.03;;;3.27;;
7211;SDS011;3647;48.792;9.802;2023-01-10T09:11:42;7.17;;;2.77;;
7211;SDS011;3647;48.792;9.802;2023-01-10T09:14:09;9.47;;;2.93;;
7211;SDS011;3647;48.792;9.802;2023-01-10T09:16:37;8.87;;;3.00;;
7211;SDS011;3647;48.792;9.802;2023-01-10T09:19:04;5.50;;;2.37;;
7211;SDS011;3647;48.792;9.802;2023-01-10T09:21:30;8.67;;;3.03;;
7211;SDS011;3647;48.792;9.802;2023-01-10T09:23:57;6.10;;;3.47;;
7211;SDS011;3647;48.792;9.802;2023-01-10T09:26:24;7.97;;;3.17;;
7211;SDS011;3647;48.792;9.802;2023-01-10T09:28:51;7.00;;;3.00;;
7211;SDS011;3647;48.792;9.802;2023-01-10T09:31:17;4.03;;;2.97;;
7211;SDS011;3647;48.792;9.802;2023-01-10T09:33:45;6.30;;;2.87;;
7211;SDS011;3647;48.792;9.802;2023-01-10T09:36:13;9.67;;;3.27;;
7211;SDS011;3647;48.792;9.802;2023-01-10T09:38:40;8.87;;;3.00;;
7211;SDS011;3647;48.792;9.802;2023-01-10T09:41:12;5.67;;;3.17;;
7211;SDS011;3647;48.792;9.802;2023-01-10T09:43:56;3.10;;;2.80;;
7211;SDS011;3647;48.792;9.802;2023-01-10T09:46:33;7.00;;;3.00;;
7211;SDS011;3647;48.792;9.802;2023-01-10T09:49:12;7.50;;;2.60;;
7211;SDS011;3647;48.792;9.802;2023-01-10T09:51:46;7.10;;;3.00;;
7211;SDS011;3647;48.792;9.802;2023-01-10T09:54:16;8.53;;;3.33;;
7211;SDS011;3647;48.792;9.802;2023-01-10T09:56:47;7.33;;;3.20;;
7211;SDS011;3647;48.792;9.802;2023-01-10T09:59:14;8.27;;;2.93;;
7211;SDS011;3647;48.792;9.802;2023-01-10T10:01:43;7.07;;;3.33;;
7211;SDS011;3647;48.792;9.802;2023-01-10T10:04:19;4.83;;;3.13;;
7211;SDS011;3647;48.792;9.802;2023-01-10T10:06:48;7.33;;;2.77;;
7211;SDS011;3647;48.792;9.802;2023-01-10T10:09:16;5.77;;;3.10;;
7211;SDS011;3647;48.792;9.802;2023-01-10T10:11:50;6.57;;;3.00;;
7211;SDS011;3647;48.792;9.802;2023-01-10T10:14:37;7.87;;;3.00;;
7211;SDS011;3647;48.792;9.802;2023-01-10T10:17:24;6.50;;;3.30;;
7211;SDS011;3647;48.792;9.802;2023-01-10T10:20:09;4.57;;;3.10;;
7211;SDS011;3647;48.792;9.802;2023-01-10T10:22:46;9.43;;;3.63;;
7211;SDS011;3647;48.792;9.802;2023-01-10T10:25:25;19.00;;;7.17;;
7211;SDS011;3647;48.792;9.802;2023-01-10T10:28:17;5.67;;;2.57;;
7211;SDS011;3647;48.792;9.802;2023-01-10T10:31:01;4.60;;;3.07;;
7211;SDS011;3647;48.792;9.802;2023-01-10T10:33:42;7.33;;;3.20;;
7211;SDS011;3647;48.792;9.802;2023-01-10T10:36:18;5.53;;;2.63;;
7211;SDS011;3647;48.792;9.802;2023-01-10T10:38:49;7.30;;;3.30;;
7211;SDS011;3647;48.792;9.802;2023-01-10T10:41:21;5.47;;;2.70;;
7211;SDS011;3647;48.792;9.802;2023-01-10T10:43:55;4.37;;;2.87;;
7211;SDS011;3647;48.792;9.802;2023-01-10T10:46:28;5.30;;;3.17;;
7211;SDS011;3647;48.792;9.802;2023-01-10T10:48:55;4.80;;;3.10;;
7211;SDS011;3647;48.792;9.802;2023-01-10T10:51:26;5.73;;;3.03;;
7211;SDS011;3647;48.792;9.802;2023-01-10T10:53:59;8.03;;;3.20;;
7211;SDS011;3647;48.792;9.802;2023-01-10T10:56:26;5.83;;;2.93;;
7211;SDS011;3647;48.792;9.802;2023-01-10T10:58:55;5.70;;;3.37;;
7211;SDS011;3647;48.792;9.802;2023-01-10T11:01:24;3.93;;;3.07;;
7211;SDS011;3647;48.792;9.802;2023-01-10T11:03:52;5.70;;;4.13;;
7211;SDS011;3647;48.792;9.802;2023-01-10T11:06:22;8.20;;;3.10;;
7211;SDS011;3647;48.792;9.802;2023-01-10T11:08:53;4.83;;;2.67;;
7211;SDS011;3647;48.792;9.802;2023-01-10T11:11:23;5.47;;;3.03;;
7211;SDS011;3647;48.792;9.802;2023-01-10T11:13:54;7.30;;;2.93;;
7211;SDS011;3647;48.792;9.802;2023-01-10T11:16:26;5.47;;;2.70;;
7211;SDS011;3647;48.792;9.802;2023-01-10T11:21:54;3.73;;;2.60;;
7211;SDS011;3647;48.792;9.802;2023-01-10T11:24:25;10.00;;;2.83;;
7211;SDS011;3647;48.792;9.802;2023-01-10T11:26:55;5.33;;;2.60;;
7211;SDS011;3647;48.792;9.802;2023-01-10T11:29:24;7.67;;;2.60;;
7211;SDS011;3647;48.792;9.802;2023-01-10T11:31:53;7.30;;;2.77;;
7211;SDS011;3647;48.792;9.802;2023-01-10T11:34:22;5.13;;;3.00;;
7211;SDS011;3647;48.792;9.802;2023-01-10T11:36:52;11.63;;;9.83;;
7211;SDS011;3647;48.792;9.802;2023-01-10T11:39:21;5.03;;;3.10;;
7211;SDS011;3647;48.792;9.802;2023-01-10T11:41:50;7.17;;;2.83;;
7211;SDS011;3647;48.792;9.802;2023-01-10T11:44:20;4.50;;;2.57;;
7211;SDS011;3647;48.792;9.802;2023-01-10T11:46:49;3.20;;;2.23;;
7211;SDS011;3647;48.792;9.802;2023-01-10T11:49:21;6.70;;;3.23;;
7211;SDS011;3647;48.792;9.802;2023-01-10T11:51:55;4.43;;;2.50;;
7211;SDS011;3647;48.792;9.802;2023-01-10T11:54:25;5.73;;;2.70;;
7211;SDS011;3647;48.792;9.802;2023-01-10T11:56:56;5.30;;;2.93;;
7211;SDS011;3647;48.792;9.802;2023-01-10T11:59:24;4.23;;;2.50;;
7211;SDS011;3647;48.792;9.802;2023-01-10T12:01:53;7.30;;;2.77;;
7211;SDS011;3647;48.792;9.802;2023-01-10T12:04:25;5.47;;;2.70;;
7211;SDS011;3647;48.792;9.802;2023-01-10T12:06:55;6.60;;;2.43;;
7211;SDS011;3647;48.792;9.802;2023-01-10T12:09:31;6.37;;;2.50;;
7211;SDS011;3647;48.792;9.802;2023-01-10T12:12:04;3.10;;;2.60;;
7211;SDS011;3647;48.792;9.802;2023-01-10T12:14:39;2.60;;;2.30;;
7211;SDS011;3647;48.792;9.802;2023-01-10T12:17:05;3.90;;;2.20;;
7211;SDS011;3647;48.792;9.802;2023-01-10T12:19:36;8.00;;;2.60;;
7211;SDS011;3647;48.792;9.802;2023-01-10T12:22:03;3.73;;;2.67;;
7211;SDS011;3647;48.792;9.802;2023-01-10T12:24:33;7.27;;;2.50;;
7211;SDS011;3647;48.792;9.802;2023-01-10T12:27:05;7.40;;;3.10;;
7211;SDS011;3647;48.792;9.802;2023-01-10T12:29:38;3.77;;;2.73;;
7211;SDS011;3647;48.792;9.802;2023-01-10T12:32:10;7.30;;;2.90;;
7211;SDS011;3647;48.792;9.802;2023-01-10T12:34:43;6.17;;;3.03;;
7211;SDS011;3647;48.792;9.802;2023-01-10T12:37:15;5.37;;;2.73;;
7211;SDS011;3647;48.792;9.802;2023-01-10T12:39:47;3.77;;;2.57;;
7211;SDS011;3647;48.792;9.802;2023-01-10T12:42:23;4.97;;;2.53;;
7211;SDS011;3647;48.792;9.802;2023-01-10T12:45:18;6.43;;;2.63;;
7211;SDS011;3647;48.792;9.802;2023-01-10T12:47:52;6.80;;;2.57;;
7211;SDS011;3647;48.792;9.802;2023-01-10T12:50:24;6.53;;;2.63;;
7211;SDS011;3647;48.792;9.802;2023-01-10T12:52:57;4.93;;;2.87;;
7211;SDS011;3647;48.792;9.802;2023-01-10T12:55:28;4.83;;;2.50;;
7211;SDS011;3647;48.792;9.802;2023-01-10T12:58:00;7.97;;;3.00;;
7211;SDS011;3647;48.792;9.802;2023-01-10T13:00:30;2.50;;;1.90;;
7211;SDS011;3647;48.792;9.802;2023-01-10T13:03:01;2.87;;;2.30;;
7211;SDS011;3647;48.792;9.802;2023-01-10T13:05:34;5.57;;;2.50;;
7211;SDS011;3647;48.792;9.802;2023-01-10T13:08:02;4.93;;;2.83;;
7211;SDS011;3647;48.792;9.802;2023-01-10T13:10:30;3.57;;;2.70;;
7211;SDS011;3647;48.792;9.802;2023-01-10T13:13:03;4.17;;;2.67;;
7211;SDS011;3647;48.792;9.802;2023-01-10T13:15:40;7.20;;;3.17;;
7211;SDS011;3647;48.792;9.802;2023-01-10T13:18:15;7.20;;;2.90;;
7211;SDS011;3647;48.792;9.802;2023-01-10T13:20:45;5.57;;;3.27;;
7211;SDS011;3647;48.792;9.802;2023-01-10T13:23:13;3.90;;;2.93;;
7211;SDS011;3647;48.792;9.802;2023-01-10T13:25:52;7.50;;;3.73;;
7211;SDS011;3647;48.792;9.802;2023-01-10T13:28:23;5.63;;;3.60;;
7211;SDS011;3647;48.792;9.802;2023-01-10T13:30:52;5.03;;;3.03;;
7211;SDS011;3647;48.792;9.802;2023-01-10T13:33:22;5.83;;;2.47;;
7211;SDS011;3647;48.792;9.802;2023-01-10T13:35:51;5.43;;;2.87;;
7211;SDS011;3647;48.792;9.802;2023-01-10T13:38:20;5.37;;;2.90;;
7211;SDS011;3647;48.792;9.802;2023-01-10T13:40:56;6.60;;;3.27;;
7211;SDS011;3647;48.792;9.802;2023-01-10T13:43:59;7.40;;;2.57;;
7211;SDS011;3647;48.792;9.802;2023-01-10T13:46:35;5.07;;;2.33;;
7211;SDS011;3647;48.792;9.802;2023-01-10T13:54:56;6.53;;;2.27;;
7211;SDS011;3647;48.792;9.802;2023-01-10T14:03:43;6.23;;;2.00;;
7211;SDS011;3647;48.792;9.802;2023-01-10T14:06:16;3.70;;;2.23;;
7211;SDS011;3647;48.792;9.802;2023-01-10T14:09:02;4.47;;;2.33;;
7211;SDS011;3647;48.792;9.802;2023-01-10T14:11:32;6.67;;;2.40;;
7211;SDS011;3647;48.792;9.802;2023-01-10T14:14:17;2.67;;;2.20;;
7211;SDS011;3647;48.792;9.802;2023-01-10T14:16:48;5.83;;;2.27;;
7211;SDS011;3647;48.792;9.802;2023-01-10T14:19:21;5.23;;;2.83;;
7211;SDS011;3647;48.792;9.802;2023-01-10T14:21:51;4.37;;;2.03;;
7211;SDS011;3647;48.792;9.802;2023-01-10T14:24:22;6.37;;;2.20;;
7211;SDS011;3647;48.792;9.802;2023-01-10T14:26:52;6.43;;;2.63;;
7211;SDS011;3647;48.792;9.802;2023-01-10T14:29:20;2.87;;;2.40;;
7211;SDS011;3647;48.792;9.802;2023-01-10T14:31:49;6.07;;;2.40;;
7211;SDS011;3647;48.792;9.802;2023-01-10T14:34:19;5.10;;;2.40;;
7211;SDS011;3647;48.792;9.802;2023-01-10T14:36:49;4.20;;;1.83;;
7211;SDS011;3647;48.792;9.802;2023-01-10T14:39:20;5.90;;;1.90;;
7211;SDS011;3647;48.792;9.802;2023-01-10T14:41:48;4.47;;;2.00;;
7211;SDS011;3647;48.792;9.802;2023-01-10T14:44:18;3.83;;;2.27;;
7211;SDS011;3647;48.792;9.802;2023-01-10T14:46:53;7.00;;;2.20;;
7211;SDS011;3647;48.792;9.802;2023-01-10T14:49:22;3.33;;;2.50;;
7211;SDS011;3647;48.792;9.802;2023-01-10T14:51:51;5.33;;;2.10;;
7211;SDS011;3647;48.792;9.802;2023-01-10T14:54:25;3.57;;;2.03;;
7211;SDS011;3647;48.792;9.802;2023-01-10T14:56:53;4.83;;;2.07;;
7211;SDS011;3647;48.792;9.802;2023-01-10T14:59:22;3.40;;;2.27;;
7211;SDS011;3647;48.792;9.802;2023-01-10T15:01:51;3.17;;;2.40;;
7211;SDS011;3647;48.792;9.802;2023-01-10T15:04:22;5.30;;;2.37;;
7211;SDS011;3647;48.792;9.802;2023-01-10T15:06:52;2.10;;;1.90;;
7211;SDS011;3647;48.792;9.802;2023-01-10T15:09:21;3.70;;;2.10;;
7211;SDS011;3647;48.792;9.802;2023-01-10T15:11:48;7.50;;;2.03;;
7211;SDS011;3647;48.792;9.802;2023-01-10T15:14:17;6.10;;;2.27;;
7211;SDS011;3647;48.792;9.802;2023-01-10T15:16:47;3.40;;;2.07;;
7211;SDS011;3647;48.792;9.802;2023-01-10T15:19:18;4.70;;;2.63;;
7211;SDS011;3647;48.792;9.802;2023-01-10T15:21:47;3.73;;;1.90;;
7211;SDS011;3647;48.792;9.802;2023-01-10T15:24:31;3.87;;;2.03;;
7211;SDS011;3647;48.792;9.802;2023-01-10T15:26:59;3.63;;;2.20;;
7211;SDS011;3647;48.792;9.802;2023-01-10T15:29:28;3.37;;;2.13;;
7211;SDS011;3647;48.792;9.802;2023-01-10T15:31:56;4.70;;;2.73;;
7211;SDS011;3647;48.792;9.802;2023-01-10T15:34:33;4.63;;;2.57;;
7211;SDS011;3647;48.792;9.802;2023-01-10T15:37:01;6.20;;;3.60;;
7211;SDS011;3647;48.792;9.802;2023-01-10T15:39:29;5.63;;;3.53;;
7211;SDS011;3647;48.792;9.802;2023-01-10T15:41:58;5.83;;;3.67;;
7211;SDS011;3647;48.792;9.802;2023-01-10T15:44:32;4.40;;;3.50;;
7211;SDS011;3647;48.792;9.802;2023-01-10T15:47:01;8.33;;;4.90;;
7211;SDS011;3647;48.792;9.802;2023-01-10T15:49:28;6.57;;;3.30;;
7211;SDS011;3647;48.792;9.802;2023-01-10T15:51:56;6.20;;;4.00;;
7211;SDS011;3647;48.792;9.802;2023-01-10T15:54:27;4.60;;;3.20;;
7211;SDS011;3647;48.792;9.802;2023-01-10T15:56:57;4.97;;;3.57;;
7211;SDS011;3647;48.792;9.802;2023-01-10T15:59:29;6.30;;;2.90;;
7211;SDS011;3647;48.792;9.802;2023-01-10T16:02:01;5.77;;;2.60;;
7211;SDS011;3647;48.792;9.802;2023-01-10T16:04:41;6.80;;;4.73;;
7211;SDS011;3647;48.792;9.802;2023-01-10T16:07:13;6.63;;;2.97;;
7211;SDS011;3647;48.792;9.802;2023-01-10T16:09:47;7.87;;;3.77;;
7211;SDS011;3647;48.792;9.802;2023-01-10T16:12:24;8.27;;;3.70;;
7211;SDS011;3647;48.792;9.802;2023-01-10T16:15:14;7.90;;;3.67;;
7211;SDS011;3647;48.792;9.802;2023-01-10T16:17:43;7.93;;;3.77;;
7211;SDS011;3647;48.792;9.802;2023-01-10T16:20:11;5.43;;;3.63;;
7211;SDS011;3647;48.792;9.802;2023-01-10T16:22:40;5.53;;;3.20;;
7211;SDS011;3647;48.792;9.802;2023-01-10T16:25:11;4.13;;;3.10;;
7211;SDS011;3647;48.792;9.802;2023-01-10T16:27:40;5.17;;;3.60;;
7211;SDS011;3647;48.792;9.802;2023-01-10T16:30:13;6.37;;;3.40;;
7211;SDS011;3647;48.792;9.802;2023-01-10T16:32:46;9.33;;;5.13;;
7211;SDS011;3647;48.792;9.802;2023-01-10T16:35:13;10.07;;;5.00;;
7211;SDS011;3647;48.792;9.802;2023-01-10T16:37:42;9.00;;;6.57;;
7211;SDS011;3647;48.792;9.802;2023-01-10T16:40:15;9.33;;;5.83;;
7211;SDS011;3647;48.792;9.802;2023-01-10T16:42:45;12.67;;;6.50;;
7211;SDS011;3647;48.792;9.802;2023-01-10T16:45:30;12.77;;;6.10;;
7211;SDS011;3647;48.792;9.802;2023-01-10T16:47:57;10.00;;;6.20;;
7211;SDS011;3647;48.792;9.802;2023-01-10T16:50:23;10.40;;;5.70;;
7211;SDS011;3647;48.792;9.802;2023-01-10T16:52:52;7.00;;;4.73;;
7211;SDS011;3647;48.792;9.802;2023-01-10T16:55:19;8.10;;;4.57;;
7211;SDS011;3647;48.792;9.802;2023-01-10T16:57:48;7.53;;;5.80;;
7211;SDS011;3647;48.792;9.802;2023-01-10T17:00:16;8.30;;;5.00;;
7211;SDS011;3647;48.792;9.802;2023-01-10T17:02:44;10.30;;;7.43;;
7211;SDS011;3647;48.792;9.802;2023-01-10T17:05:12;8.17;;;5.33;;
7211;SDS011;3647;48.792;9.802;2023-01-10T17:07:39;8.13;;;5.40;;
7211;SDS011;3647;48.792;9.802;2023-01-10T17:10:08;12.33;;;5.17;;
7211;SDS011;3647;48.792;9.802;2023-01-10T17:12:36;6.47;;;4.17;;
7211;SDS011;3647;48.792;9.802;2023-01-10T17:15:04;8.53;;;5.27;;
7211;SDS011;3647;48.792;9.802;2023-01-10T17:17:33;8.87;;;4.40;;
7211;SDS011;3647;48.792;9.802;2023-01-10T17:20:00;11.07;;;5.63;;
7211;SDS011;3647;48.792;9.802;2023-01-10T17:22:26;7.53;;;3.70;;
7211;SDS011;3647;48.792;9.802;2023-01-10T17:24:54;8.50;;;4.87;;
7211;SDS011;3647;48.792;9.802;2023-01-10T17:27:22;7.67;;;3.00;;
7211;SDS011;3647;48.792;9.802;2023-01-10T17:29:49;9.53;;;4.60;;
7211;SDS011;3647;48.792;9.802;2023-01-10T17:32:16;10.30;;;4.60;;
7211;SDS011;3647;48.792;9.802;2023-01-10T17:34:42;13.67;;;5.30;;
7211;SDS011;3647;48.792;9.802;2023-01-10T17:37:09;5.17;;;3.37;;
7211;SDS011;3647;48.792;9.802;2023-01-10T17:39:36;9.17;;;4.17;;
7211;SDS011;3647;48.792;9.802;2023-01-10T17:42:03;4.33;;;2.93;;
7211;SDS011;3647;48.792;9.802;2023-01-10T17:44:31;6.17;;;3.30;;
7211;SDS011;3647;48.792;9.802;2023-01-10T17:46:58;4.10;;;2.70;;
7211;SDS011;3647;48.792;9.802;2023-01-10T17:49:26;5.67;;;3.50;;
7211;SDS011;3647;48.792;9.802;2023-01-10T17:51:53;4.37;;;3.00;;
7211;SDS011;3647;48.792;9.802;2023-01-10T17:54:22;4.43;;;3.13;;
7211;SDS011;3647;48.792;9.802;2023-01-10T17:56:50;4.10;;;2.67;;
7211;SDS011;3647;48.792;9.802;2023-01-10T17:59:16;3.40;;;2.90;;
7211;SDS011;3647;48.792;9.802;2023-01-10T18:01:44;4.77;;;3.60;;
7211;SDS011;3647;48.792;9.802;2023-01-10T18:04:11;7.40;;;3.37;;
7211;SDS011;3647;48.792;9.802;2023-01-10T18:06:38;4.57;;;4.10;;
7211;SDS011;3647;48.792;9.802;2023-01-10T18:09:05;5.00;;;3.90;;
7211;SDS011;3647;48.792;9.802;2023-01-10T18:11:31;5.40;;;4.40;;
7211;SDS011;3647;48.792;9.802;2023-01-10T18:13:58;6.93;;;3.30;;
7211;SDS011;3647;48.792;9.802;2023-01-10T18:16:46;4.90;;;3.70;;
7211;SDS011;3647;48.792;9.802;2023-01-10T18:19:13;5.93;;;3.10;;
7211;SDS011;3647;48.792;9.802;2023-01-10T18:21:40;6.80;;;3.70;;
7211;SDS011;3647;48.792;9.802;2023-01-10T18:24:06;9.50;;;4.23;;
7211;SDS011;3647;48.792;9.802;2023-01-10T18:26:33;7.00;;;3.87;;
7211;SDS011;3647;48.792;9.802;2023-01-10T18:29:00;11.93;;;4.70;;
7211;SDS011;3647;48.792;9.802;2023-01-10T18:31:27;5.03;;;4.43;;
7211;SDS011;3647;48.792;9.802;2023-01-10T18:33:55;5.30;;;3.97;;
7211;SDS011;3647;48.792;9.802;2023-01-10T18:36:22;10.77;;;5.63;;
7211;SDS011;3647;48.792;9.802;2023-01-10T18:38:49;9.83;;;5.80;;
7211;SDS011;3647;48.792;9.802;2023-01-10T18:41:17;9.17;;;6.00;;
7211;SDS011;3647;48.792;9.802;2023-01-10T18:43:45;12.33;;;6.03;;
7211;SDS011;3647;48.792;9.802;2023-01-10T18:46:13;8.40;;;5.07;;
7211;SDS011;3647;48.792;9.802;2023-01-10T18:48:42;8.17;;;4.50;;
7211;SDS011;3647;48.792;9.802;2023-01-10T18:51:10;6.03;;;4.20;;
7211;SDS011;3647;48.792;9.802;2023-01-10T18:53:38;8.70;;;5.67;;
7211;SDS011;3647;48.792;9.802;2023-01-10T18:56:05;6.33;;;4.87;;
7211;SDS011;3647;48.792;9.802;2023-01-10T18:58:33;8.83;;;4.67;;
7211;SDS011;3647;48.792;9.802;2023-01-10T19:01:05;9.70;;;5.03;;
7211;SDS011;3647;48.792;9.802;2023-01-10T19:03:32;17.93;;;10.57;;
7211;SDS011;3647;48.792;9.802;2023-01-10T19:05:59;19.87;;;9.70;;
7211;SDS011;3647;48.792;9.802;2023-01-10T19:08:27;15.47;;;8.83;;
7211;SDS011;3647;48.792;9.802;2023-01-10T19:10:54;17.60;;;9.93;;
7211;SDS011;3647;48.792;9.802;2023-01-10T19:13:21;14.70;;;9.60;;
7211;SDS011;3647;48.792;9.802;2023-01-10T19:15:48;11.83;;;7.87;;
7211;SDS011;3647;48.792;9.802;2023-01-10T19:18:15;13.40;;;7.70;;
7211;SDS011;3647;48.792;9.802;2023-01-10T19:20:42;11.10;;;6.97;;
7211;SDS011;3647;48.792;9.802;2023-01-10T19:23:08;14.90;;;7.03;;
7211;SDS011;3647;48.792;9.802;2023-01-10T19:25:36;15.13;;;8.93;;
7211;SDS011;3647;48.792;9.802;2023-01-10T19:28:03;17.03;;;9.77;;
7211;SDS011;3647;48.792;9.802;2023-01-10T19:30:30;13.00;;;8.07;;
7211;SDS011;3647;48.792;9.802;2023-01-10T19:32:57;12.93;;;7.80;;
7211;SDS011;3647;48.792;9.802;2023-01-10T19:35:23;12.70;;;7.10;;
7211;SDS011;3647;48.792;9.802;2023-01-10T19:37:50;9.53;;;7.00;;
7211;SDS011;3647;48.792;9.802;2023-01-10T19:40:17;9.40;;;6.87;;
7211;SDS011;3647;48.792;9.802;2023-01-10T19:42:45;8.70;;;6.27;;
7211;SDS011;3647;48.792;9.802;2023-01-10T19:45:12;14.93;;;10.03;;
7211;SDS011;3647;48.792;9.802;2023-01-10T19:47:38;11.07;;;8.13;;
7211;SDS011;3647;48.792;9.802;2023-01-10T19:50:05;11.23;;;8.10;;
7211;SDS011;3647;48.792;9.802;2023-01-10T19:52:33;9.77;;;7.17;;
7211;SDS011;3647;48.792;9.802;2023-01-10T19:54:59;13.40;;;8.30;;
7211;SDS011;3647;48.792;9.802;2023-01-10T19:57:26;14.17;;;8.97;;
7211;SDS011;3647;48.792;9.802;2023-01-10T19:59:54;13.03;;;7.77;;
7211;SDS011;3647;48.792;9.802;2023-01-10T20:02:22;13.90;;;8.83;;
7211;SDS011;3647;48.792;9.802;2023-01-10T20:04:49;14.00;;;8.90;;
7211;SDS011;3647;48.792;9.802;2023-01-10T20:07:16;14.33;;;9.17;;
7211;SDS011;3647;48.792;9.802;2023-01-10T20:09:42;17.10;;;10.13;;
7211;SDS011;3647;48.792;9.802;2023-01-10T20:12:09;16.13;;;9.17;;
7211;SDS011;3647;48.792;9.802;2023-01-10T20:14:37;18.30;;;11.00;;
7211;SDS011;3647;48.792;9.802;2023-01-10T20:17:06;17.37;;;10.33;;
7211;SDS011;3647;48.792;9.802;2023-01-10T20:19:33;18.87;;;9.87;;
7211;SDS011;3647;48.792;9.802;2023-01-10T20:22:00;13.00;;;9.60;;
7211;SDS011;3647;48.792;9.802;2023-01-10T20:24:26;13.03;;;8.27;;
7211;SDS011;3647;48.792;9.802;2023-01-10T20:26:53;12.27;;;7.53;;
7211;SDS011;3647;48.792;9.802;2023-01-10T20:29:21;13.03;;;7.70;;
7211;SDS011;3647;48.792;9.802;2023-01-10T20:31:48;12.53;;;7.30;;
7211;SDS011;3647;48.792;9.802;2023-01-10T20:34:18;11.77;;;7.63;;
7211;SDS011;3647;48.792;9.802;2023-01-10T20:36:46;9.60;;;6.10;;
7211;SDS011;3647;48.792;9.802;2023-01-10T20:39:16;7.97;;;6.17;;
7211;SDS011;3647;48.792;9.802;2023-01-10T20:41:43;15.90;;;6.43;;
7211;SDS011;3647;48.792;9.802;2023-01-10T20:44:09;7.43;;;5.20;;
7211;SDS011;3647;48.792;9.802;2023-01-10T20:46:36;8.20;;;5.67;;
7211;SDS011;3647;48.792;9.802;2023-01-10T20:49:03;6.83;;;5.03;;
7211;SDS011;3647;48.792;9.802;2023-01-10T20:51:32;6.77;;;5.20;;
7211;SDS011;3647;48.792;9.802;2023-01-10T20:54:00;10.43;;;6.20;;
7211;SDS011;3647;48.792;9.802;2023-01-10T20:56:28;8.90;;;7.70;;